createdAt,value
2022-10-17T00:00:36.965Z,101309.19
2022-10-17T00:03:04.900Z,101303.09
2022-10-17T00:05:32.654Z,101298.59
2022-10-17T00:08:01.884Z,101299.75
2022-10-17T00:10:32.597Z,101288.78
2022-10-17T00:13:01.917Z,101259.72
2022-10-17T00:15:29.887Z,101295.66
2022-10-17T00:18:14.221Z,101301.34
2022-10-17T00:20:46.273Z,101290.78
2022-10-17T00:23:22.863Z,101295.56
2022-10-17T00:25:59.387Z,101288.31
2022-10-17T00:28:27.414Z,101289.06
2022-10-17T00:31:02.464Z,101286.25
2022-10-17T00:33:31.857Z,101292.94
2022-10-17T00:36:07.278Z,101284.31
2022-10-17T00:38:38.085Z,101287.50
2022-10-17T00:41:06.241Z,101297.59
2022-10-17T00:43:56.824Z,101293.75
2022-10-17T00:46:26.945Z,101301.78
2022-10-17T00:48:56.548Z,101308.34
2022-10-17T00:51:32.185Z,101279.56
2022-10-17T00:54:03.826Z,101290.09
2022-10-17T00:56:34.690Z,101299.19
2022-10-17T00:59:03.163Z,101260.75
2022-10-17T01:01:31.166Z,101283.44
2022-10-17T01:03:59.207Z,101291.16
2022-10-17T01:06:27.011Z,101291.75
2022-10-17T01:08:55.361Z,101286.44
2022-10-17T01:11:34.321Z,101293.13
2022-10-17T01:14:13.235Z,101279.59
2022-10-17T01:17:00.532Z,101284.63
2022-10-17T01:20:00.464Z,101287.03
2022-10-17T01:22:32.551Z,101288.38
2022-10-17T01:25:28.749Z,101284.69
2022-10-17T01:28:12.553Z,101279.97
2022-10-17T01:30:52.584Z,101279.81
2022-10-17T01:33:31.712Z,101278.03
2022-10-17T01:36:05.780Z,101271.19
2022-10-17T01:38:49.682Z,101274.47
2022-10-17T01:41:26.401Z,101275.34
2022-10-17T01:44:02.875Z,101271.78
2022-10-17T01:46:37.910Z,101269.28
2022-10-17T01:49:07.654Z,101263.31
2022-10-17T01:51:39.982Z,101247.44
2022-10-17T01:54:12.579Z,101264.47
2022-10-17T01:56:42.309Z,101260.06
2022-10-17T01:59:15.644Z,101251.75
2022-10-17T02:01:46.001Z,101254.09
2022-10-17T02:04:13.815Z,101249.94
2022-10-17T02:06:53.611Z,101257.66
2022-10-17T02:09:27.406Z,101253.50
2022-10-17T02:12:16.312Z,101238.94
2022-10-17T02:15:03.576Z,101245.91
2022-10-17T02:17:47.131Z,101235.09
2022-10-17T02:20:24.907Z,101244.13
2022-10-17T02:23:02.611Z,101247.41
2022-10-17T02:25:37.851Z,101241.47
2022-10-17T02:28:21.632Z,101237.16
2022-10-17T02:30:56.079Z,101230.31
2022-10-17T02:33:32.346Z,101226.03
2022-10-17T02:36:05.835Z,101226.75
2022-10-17T02:38:35.700Z,101226.88
2022-10-17T02:41:04.995Z,101230.91
2022-10-17T02:43:33.102Z,101229.75
2022-10-17T02:46:03.499Z,101228.69
2022-10-17T02:48:39.516Z,101227.41
2022-10-17T02:51:21.627Z,101228.88
2022-10-17T02:53:56.647Z,101218.91
2022-10-17T02:56:27.140Z,101219.94
2022-10-17T02:59:02.459Z,101192.31
2022-10-17T03:01:34.404Z,101217.72
2022-10-17T03:04:15.448Z,101218.91
2022-10-17T03:07:05.587Z,101219.31
2022-10-17T03:10:15.000Z,101224.91
2022-10-17T03:12:48.199Z,101222.28
2022-10-17T03:15:16.578Z,101223.50
2022-10-17T03:17:47.685Z,101209.06
2022-10-17T03:20:17.395Z,101226.34
2022-10-17T03:22:46.259Z,101226.91
2022-10-17T03:25:17.992Z,101226.69
2022-10-17T03:27:51.214Z,101217.88
2022-10-17T03:30:19.255Z,101223.22
2022-10-17T03:32:50.266Z,101213.34
2022-10-17T03:35:19.407Z,101217.19
2022-10-17T03:37:50.667Z,101221.59
2022-10-17T03:40:21.688Z,101220.91
2022-10-17T03:42:54.631Z,101225.22
2022-10-17T03:48:18.536Z,101223.63
2022-10-17T03:50:47.970Z,101223.63
2022-10-17T03:53:24.150Z,101227.94
2022-10-17T03:55:54.044Z,101231.38
2022-10-17T03:58:30.345Z,101224.66
2022-10-17T04:00:58.748Z,101231.50
2022-10-17T04:03:26.790Z,101224.78
2022-10-17T04:05:56.140Z,101229.84
2022-10-17T04:08:30.918Z,101229.84
2022-10-17T04:11:21.916Z,101226.31
2022-10-17T04:13:53.904Z,101235.81
2022-10-17T04:16:22.676Z,101228.84
2022-10-17T04:19:00.010Z,101230.22
2022-10-17T04:21:33.037Z,101234.00
2022-10-17T04:24:06.730Z,101233.81
2022-10-17T04:26:50.772Z,101242.19
2022-10-17T04:29:22.474Z,101234.47
2022-10-17T04:31:52.932Z,101239.34
2022-10-17T04:34:27.091Z,101238.19
2022-10-17T04:36:59.385Z,101236.81
2022-10-17T04:39:58.036Z,101238.03
2022-10-17T04:42:27.136Z,101243.09
2022-10-17T04:44:55.514Z,101230.13
2022-10-17T04:47:26.560Z,101243.09
2022-10-17T04:50:11.403Z,101236.53
2022-10-17T04:52:42.743Z,101244.25
2022-10-17T04:55:15.485Z,101245.88
2022-10-17T04:57:43.572Z,101239.31
2022-10-17T05:00:22.378Z,101243.59
2022-10-17T05:03:05.503Z,101237.75
2022-10-17T05:05:34.221Z,101248.41
2022-10-17T05:08:07.246Z,101238.53
2022-10-17T05:10:47.121Z,101242.88
2022-10-17T05:13:17.996Z,101247.03
2022-10-17T05:15:48.319Z,101240.94
2022-10-17T05:18:16.755Z,101245.13
2022-10-17T05:20:45.321Z,101243.59
2022-10-17T05:23:32.772Z,101250.72
2022-10-17T05:26:03.342Z,101245.97
2022-10-17T05:28:35.005Z,101240.25
2022-10-17T05:31:07.435Z,101251.41
2022-10-17T05:33:35.742Z,101247.78
2022-10-17T05:36:04.047Z,101246.03
2022-10-17T05:38:44.096Z,101248.09
2022-10-17T05:41:15.601Z,101246.19
2022-10-17T05:43:44.083Z,101230.06
2022-10-17T05:46:27.345Z,101236.19
2022-10-17T05:48:56.418Z,101238.38
2022-10-17T05:51:26.887Z,101230.41
2022-10-17T05:53:59.503Z,101241.56
2022-10-17T05:56:28.877Z,101237.38
2022-10-17T05:59:01.072Z,101231.28
2022-10-17T06:02:09.014Z,101234.09
2022-10-17T06:04:37.959Z,101237.66
2022-10-17T06:07:06.488Z,101241.09
2022-10-17T06:09:36.617Z,101234.22
2022-10-17T06:12:04.988Z,101240.19
2022-10-17T06:14:35.081Z,101236.50
2022-10-17T06:17:04.944Z,101250.31
2022-10-17T06:19:33.208Z,101253.25
2022-10-17T06:22:01.068Z,101259.63
2022-10-17T06:24:40.479Z,101244.53
2022-10-17T06:27:11.749Z,101250.03
2022-10-17T06:29:47.572Z,101245.06
2022-10-17T06:32:21.460Z,101233.25
2022-10-17T06:34:52.449Z,101243.69
2022-10-17T06:37:29.215Z,101255.75
2022-10-17T06:40:03.703Z,101253.47
2022-10-17T06:42:33.642Z,101266.38
2022-10-17T06:45:40.128Z,101263.53
2022-10-17T06:48:40.477Z,101274.44
2022-10-17T06:51:19.680Z,101269.13
2022-10-17T06:53:57.148Z,101277.63
2022-10-17T06:56:44.787Z,101283.16
2022-10-17T06:59:41.660Z,101272.75
2022-10-17T07:02:18.008Z,101285.44
2022-10-17T07:04:47.432Z,101289.25
2022-10-17T07:07:20.530Z,101285.72
2022-10-17T07:09:51.662Z,101289.13
2022-10-17T07:12:25.637Z,101289.25
2022-10-17T07:14:54.296Z,101292.06
2022-10-17T07:17:27.415Z,101305.28
2022-10-17T07:19:55.574Z,101301.72
2022-10-17T07:22:29.920Z,101287.66
2022-10-17T07:25:01.863Z,101312.66
2022-10-17T07:27:46.874Z,101312.50
2022-10-17T07:30:21.892Z,101316.22
2022-10-17T07:33:10.522Z,101314.78
2022-10-17T07:35:40.877Z,101321.00
2022-10-17T07:38:08.958Z,101316.13
2022-10-17T07:40:36.961Z,101316.19
2022-10-17T07:43:06.183Z,101318.03
2022-10-17T07:45:35.951Z,101315.25
2022-10-17T07:48:04.691Z,101309.59
2022-10-17T07:50:40.470Z,101315.31
2022-10-17T07:53:09.541Z,101314.63
2022-10-17T07:55:44.756Z,101287.25
2022-10-17T07:58:14.838Z,101310.44
2022-10-17T08:00:43.240Z,101319.09
2022-10-17T08:03:24.199Z,101321.34
2022-10-17T08:05:54.208Z,101307.22
2022-10-17T08:12:46.799Z,101313.75
2022-10-17T08:15:16.157Z,101314.22
2022-10-17T08:17:47.153Z,101311.25
2022-10-17T08:20:14.927Z,101316.69
2022-10-17T08:22:42.784Z,101315.38
2022-10-17T08:25:11.424Z,101304.09
2022-10-17T08:27:42.034Z,101300.34
2022-10-17T08:30:10.853Z,101311.91
2022-10-17T08:32:40.407Z,101310.69
2022-10-17T08:35:09.154Z,101319.69
2022-10-17T08:37:37.471Z,101311.38
2022-10-17T08:40:06.495Z,101311.94
2022-10-17T08:43:02.896Z,101317.59
2022-10-17T08:45:35.905Z,101325.09
2022-10-17T08:48:10.575Z,101315.34
2022-10-17T08:50:43.937Z,101322.56
2022-10-17T08:53:20.026Z,101323.75
2022-10-17T08:55:49.664Z,101326.66
2022-10-17T08:58:22.133Z,101321.88
2022-10-17T09:00:58.370Z,101306.72
2022-10-17T09:03:50.526Z,101308.81
2022-10-17T09:06:24.443Z,101307.38
2022-10-17T09:09:06.673Z,101299.16
2022-10-17T09:11:55.888Z,101299.69
2022-10-17T09:14:38.778Z,101291.59
2022-10-17T09:17:23.440Z,101292.78
2022-10-17T09:20:03.784Z,101297.34
2022-10-17T09:22:42.381Z,101277.38
2022-10-17T09:25:13.364Z,101296.22
2022-10-17T09:27:48.031Z,101297.22
2022-10-17T09:30:44.850Z,101304.09
2022-10-17T09:33:34.285Z,101308.31
2022-10-17T09:36:16.095Z,101310.97
2022-10-17T09:38:46.388Z,101318.84
2022-10-17T09:41:43.733Z,101315.19
2022-10-17T09:44:21.762Z,101313.06
2022-10-17T09:47:23.742Z,101317.66
2022-10-17T09:49:52.006Z,101318.38
2022-10-17T09:52:23.404Z,101289.59
2022-10-17T09:54:56.179Z,101315.97
2022-10-17T09:57:24.229Z,101301.91
2022-10-17T10:00:01.185Z,101315.97
2022-10-17T10:02:31.495Z,101314.09
2022-10-17T10:05:04.651Z,101321.06
2022-10-17T10:07:36.964Z,101313.06
2022-10-17T10:10:07.389Z,101299.06
2022-10-17T10:12:37.675Z,101312.19
2022-10-17T10:15:33.770Z,101304.69
2022-10-17T10:18:01.676Z,101312.88
2022-10-17T10:20:33.980Z,101312.59
2022-10-17T10:23:14.603Z,101315.06
2022-10-17T10:25:57.249Z,101326.38
2022-10-17T10:28:28.789Z,101317.22
2022-10-17T10:30:58.740Z,101328.84
2022-10-17T10:33:29.999Z,101325.72
2022-10-17T10:36:01.202Z,101320.09
2022-10-17T10:38:33.020Z,101322.06
2022-10-17T10:41:05.473Z,101321.38
2022-10-17T10:43:37.778Z,101319.44
2022-10-17T10:46:07.896Z,101320.59
2022-10-17T10:48:37.628Z,101321.19
2022-10-17T10:51:33.132Z,101321.09
2022-10-17T10:54:17.403Z,101323.75
2022-10-17T10:56:49.881Z,101313.59
2022-10-17T10:59:26.713Z,101315.66
2022-10-17T11:01:59.025Z,101319.50
2022-10-17T11:04:32.331Z,101320.78
2022-10-17T11:07:05.872Z,101324.97
2022-10-17T11:09:47.441Z,101318.03
2022-10-17T11:12:21.909Z,101322.28
2022-10-17T11:14:58.454Z,101319.97
2022-10-17T11:17:33.855Z,101308.16
2022-10-17T11:20:15.017Z,101299.69
2022-10-17T11:22:47.584Z,101290.53
2022-10-17T11:25:25.888Z,101295.72
2022-10-17T11:27:53.721Z,101299.97
2022-10-17T11:30:24.436Z,101313.56
2022-10-17T11:32:57.988Z,101311.00
2022-10-17T11:35:29.737Z,101301.63
2022-10-17T11:38:16.117Z,101294.91
2022-10-17T11:40:50.589Z,101298.81
2022-10-17T11:43:22.451Z,101292.69
2022-10-17T11:45:56.573Z,101303.69
2022-10-17T11:48:29.474Z,101309.13
2022-10-17T11:54:00.281Z,101297.66
2022-10-17T11:56:43.761Z,101308.19
2022-10-17T11:59:42.589Z,101316.88
2022-10-17T12:02:16.605Z,101329.69
2022-10-17T12:05:01.751Z,101314.22
2022-10-17T12:10:34.831Z,101322.06
2022-10-17T12:13:38.215Z,101309.16
2022-10-17T12:16:51.189Z,101315.72
2022-10-17T12:19:28.512Z,101316.50
2022-10-17T12:22:01.396Z,101334.91
2022-10-17T12:24:36.061Z,101322.97
2022-10-17T12:27:38.211Z,101334.91
2022-10-17T12:30:20.905Z,101342.59
2022-10-17T12:33:07.331Z,101340.84
2022-10-17T12:35:38.920Z,101337.47
2022-10-17T12:38:39.708Z,101338.66
2022-10-17T12:41:11.571Z,101329.38
2022-10-17T12:44:01.072Z,101346.88
2022-10-17T12:46:51.200Z,101347.06
2022-10-17T12:49:42.680Z,101362.66
2022-10-17T12:52:25.773Z,101349.28
2022-10-17T12:55:12.770Z,101357.09
2022-10-17T12:57:48.222Z,101365.03
2022-10-17T13:00:21.987Z,101372.06
2022-10-17T13:02:53.057Z,101375.41
2022-10-17T13:05:29.414Z,101373.56
2022-10-17T13:08:02.336Z,101387.00
2022-10-17T13:10:33.288Z,101384.25
2022-10-17T13:13:21.975Z,101396.09
2022-10-17T13:15:51.279Z,101401.88
2022-10-17T13:18:22.063Z,101399.00
2022-10-17T13:20:58.236Z,101397.13
2022-10-17T13:23:31.801Z,101387.16
2022-10-17T13:26:09.282Z,101400.16
2022-10-17T13:28:45.207Z,101401.44
2022-10-17T13:31:29.896Z,101402.78
2022-10-17T13:33:58.979Z,101399.03
2022-10-17T13:36:31.597Z,101396.47
2022-10-17T13:39:09.410Z,101397.28
2022-10-17T13:41:43.220Z,101391.97
2022-10-17T13:44:16.119Z,101403.81
2022-10-17T13:46:47.794Z,101390.53
2022-10-17T13:49:25.735Z,101411.28
2022-10-17T13:51:55.384Z,101418.34
2022-10-17T13:54:34.729Z,101429.75
2022-10-17T13:57:03.970Z,101419.84
2022-10-17T13:59:39.152Z,101419.38
2022-10-17T14:02:12.525Z,101416.69
2022-10-17T14:05:11.642Z,101411.06
2022-10-17T14:07:58.324Z,101418.00
2022-10-17T14:10:27.682Z,101421.81
2022-10-17T14:12:56.265Z,101432.38
2022-10-17T14:15:31.973Z,101427.25
2022-10-17T14:18:06.703Z,101434.84
2022-10-17T14:23:34.843Z,101431.97
2022-10-17T14:26:10.727Z,101434.53
2022-10-17T14:28:40.986Z,101426.56
2022-10-17T14:31:20.784Z,101431.50
2022-10-17T14:33:51.322Z,101444.22
2022-10-17T14:36:20.450Z,101445.78
2022-10-17T14:38:51.356Z,101445.69
2022-10-17T14:44:21.483Z,101453.38
2022-10-17T14:46:54.031Z,101457.53
2022-10-17T14:49:29.050Z,101457.53
2022-10-17T14:52:32.478Z,101471.31
2022-10-17T14:55:02.101Z,101476.22
2022-10-17T14:57:43.786Z,101476.81
2022-10-17T15:00:16.491Z,101476.41
2022-10-17T15:02:49.320Z,101487.94
2022-10-17T15:05:21.046Z,101493.63
2022-10-17T15:07:51.430Z,101496.88
2022-10-17T15:10:36.745Z,101488.19
2022-10-17T15:15:54.075Z,101502.34
2022-10-17T15:18:25.055Z,101503.91
2022-10-17T15:21:04.769Z,101511.50
2022-10-17T15:23:34.559Z,101513.16
2022-10-17T15:26:02.741Z,101512.19
2022-10-17T15:28:32.289Z,101519.00
2022-10-17T15:31:00.239Z,101518.78
2022-10-17T15:33:28.061Z,101518.44
2022-10-17T15:35:55.919Z,101521.81
2022-10-17T15:38:23.759Z,101518.81
2022-10-17T15:40:52.024Z,101519.31
2022-10-17T15:43:20.219Z,101510.22
2022-10-17T15:45:49.789Z,101513.56
2022-10-17T15:48:33.657Z,101522.72
2022-10-17T15:51:04.193Z,101520.81
2022-10-17T15:53:35.276Z,101524.19
2022-10-17T15:56:03.323Z,101529.06
2022-10-17T15:58:36.612Z,101526.41
2022-10-17T16:01:07.471Z,101540.09
2022-10-17T16:03:35.349Z,101524.63
2022-10-17T16:06:03.203Z,101532.28
2022-10-17T16:08:31.313Z,101536.53
2022-10-17T16:10:59.098Z,101547.53
2022-10-17T16:13:26.987Z,101542.31
2022-10-17T16:15:57.798Z,101546.44
2022-10-17T16:18:30.059Z,101550.47
2022-10-17T16:20:57.788Z,101549.66
2022-10-17T16:23:25.567Z,101559.81
2022-10-17T16:25:53.283Z,101564.81
2022-10-17T16:28:21.059Z,101574.16
2022-10-17T16:30:49.220Z,101570.50
2022-10-17T16:33:17.019Z,101569.41
2022-10-17T16:35:47.623Z,101578.19
2022-10-17T16:38:15.716Z,101588.78
2022-10-17T16:40:43.444Z,101581.63
2022-10-17T16:43:13.927Z,101581.09
2022-10-17T16:45:42.131Z,101583.09
2022-10-17T16:48:10.726Z,101590.66
2022-10-17T16:50:40.550Z,101593.22
2022-10-17T16:53:12.754Z,101597.44
2022-10-17T16:55:40.528Z,101591.31
2022-10-17T16:58:11.208Z,101604.88
2022-10-17T17:00:40.140Z,101594.88
2022-10-17T17:03:07.972Z,101611.22
2022-10-17T17:05:35.750Z,101610.22
2022-10-17T17:08:04.912Z,101616.78
2022-10-17T17:10:40.221Z,101622.00
2022-10-17T17:13:08.025Z,101613.31
2022-10-17T17:15:35.959Z,101619.78
2022-10-17T17:18:06.159Z,101627.00
2022-10-17T17:20:48.561Z,101626.19
2022-10-17T17:23:19.189Z,101626.00
2022-10-17T17:25:48.307Z,101632.53
2022-10-17T17:28:16.056Z,101635.09
2022-10-17T17:30:44.771Z,101635.00
2022-10-17T17:33:12.807Z,101633.09
2022-10-17T17:35:40.756Z,101641.41
2022-10-17T17:38:08.466Z,101635.88
2022-10-17T17:40:50.671Z,101640.84
2022-10-17T17:43:19.258Z,101637.28
2022-10-17T17:45:47.091Z,101618.63
2022-10-17T17:48:15.775Z,101645.84
2022-10-17T17:50:44.405Z,101641.53
2022-10-17T17:53:18.845Z,101644.63
2022-10-17T17:56:01.961Z,101649.28
2022-10-17T17:58:29.744Z,101658.69
2022-10-17T18:00:57.806Z,101661.94
2022-10-17T18:03:34.040Z,101666.03
2022-10-17T18:06:01.822Z,101665.03
2022-10-17T18:08:30.322Z,101664.66
2022-10-17T18:10:59.498Z,101663.56
2022-10-17T18:13:27.571Z,101665.22
2022-10-17T18:15:58.113Z,101678.88
2022-10-17T18:18:26.749Z,101677.88
2022-10-17T18:20:55.290Z,101688.19
2022-10-17T18:23:23.436Z,101680.31
2022-10-17T18:25:55.319Z,101693.97
2022-10-17T18:28:25.083Z,101680.81
2022-10-17T18:30:52.988Z,101692.56
2022-10-17T18:33:23.739Z,101694.00
2022-10-17T18:35:51.604Z,101695.44
2022-10-17T18:38:19.389Z,101688.31
2022-10-17T18:40:50.006Z,101689.50
2022-10-17T18:43:18.628Z,101695.28
2022-10-17T18:45:49.949Z,101694.16
2022-10-17T18:48:17.796Z,101702.44
2022-10-17T18:50:48.479Z,101689.22
2022-10-17T18:53:18.620Z,101691.97
2022-10-17T18:55:53.887Z,101689.22
2022-10-17T18:58:25.310Z,101702.75
2022-10-17T19:00:55.385Z,101701.75
2022-10-17T19:03:27.426Z,101691.28
2022-10-17T19:05:56.761Z,101688.50
2022-10-17T19:08:26.895Z,101688.81
2022-10-17T19:10:54.716Z,101702.69
2022-10-17T19:13:22.595Z,101704.13
2022-10-17T19:15:50.515Z,101699.53
2022-10-17T19:18:19.872Z,101706.19
2022-10-17T19:20:47.654Z,101702.75
2022-10-17T19:23:15.382Z,101709.00
2022-10-17T19:25:44.677Z,101711.53
2022-10-17T19:28:15.345Z,101711.44
2022-10-17T19:30:43.283Z,101710.06
2022-10-17T19:33:11.112Z,101715.41
2022-10-17T19:35:41.297Z,101715.28
2022-10-17T19:38:09.091Z,101716.03
2022-10-17T19:40:43.462Z,101715.91
2022-10-17T19:43:11.279Z,101730.09
2022-10-17T19:45:39.051Z,101729.06
2022-10-17T19:48:07.319Z,101724.59
2022-10-17T19:50:39.183Z,101731.25
2022-10-17T19:53:10.568Z,101730.13
2022-10-17T19:55:38.398Z,101725.16
2022-10-17T19:58:06.323Z,101738.41
2022-10-17T20:00:34.809Z,101739.16
2022-10-17T20:03:02.923Z,101738.41
2022-10-17T20:05:33.813Z,101742.72
2022-10-17T20:08:01.571Z,101750.34
2022-10-17T20:10:30.850Z,101750.25
2022-10-17T20:12:58.783Z,101753.84
2022-10-17T20:15:33.952Z,101756.25
2022-10-17T20:18:01.739Z,101753.84
2022-10-17T20:20:29.813Z,101765.06
2022-10-17T20:23:00.040Z,101759.84
2022-10-17T20:25:28.125Z,101768.09
2022-10-17T20:27:58.538Z,101773.06
2022-10-17T20:30:34.678Z,101773.72
2022-10-17T20:33:02.730Z,101791.81
2022-10-17T20:35:30.537Z,101790.28
2022-10-17T20:37:58.389Z,101777.94
2022-10-17T20:40:41.500Z,101794.88
2022-10-17T20:43:12.333Z,101783.94
2022-10-17T20:45:50.914Z,101802.94
2022-10-17T20:48:26.044Z,101806.09
2022-10-17T20:50:58.050Z,101811.09
2022-10-17T20:53:36.722Z,101818.59
2022-10-17T20:56:11.558Z,101809.94
2022-10-17T20:58:40.695Z,101820.00
2022-10-17T21:01:09.173Z,101828.41
2022-10-17T21:03:39.857Z,101824.84
2022-10-17T21:06:12.808Z,101842.69
2022-10-17T21:08:48.345Z,101831.22
2022-10-17T21:11:18.760Z,101833.88
2022-10-17T21:13:54.312Z,101837.84
2022-10-17T21:16:25.054Z,101841.00
2022-10-17T21:18:53.287Z,101847.00
2022-10-17T21:21:26.662Z,101851.31
2022-10-17T21:23:56.385Z,101857.31
2022-10-17T21:26:26.073Z,101834.25
2022-10-17T21:28:55.880Z,101860.00
2022-10-17T21:31:27.667Z,101860.78
2022-10-17T21:33:56.915Z,101857.19
2022-10-17T21:36:26.844Z,101851.69
2022-10-17T21:38:57.726Z,101861.50
2022-10-17T21:41:30.159Z,101865.75
2022-10-17T21:44:01.842Z,101865.47
2022-10-17T21:46:30.168Z,101843.66
2022-10-17T21:48:59.795Z,101863.28
2022-10-17T21:51:28.627Z,101862.91
2022-10-17T21:53:58.006Z,101869.16
2022-10-17T21:56:28.653Z,101868.88
2022-10-17T21:58:57.467Z,101867.88
2022-10-17T22:01:28.598Z,101863.00
2022-10-17T22:03:58.375Z,101851.25
2022-10-17T22:06:44.263Z,101865.28
2022-10-17T22:09:15.464Z,101870.09
2022-10-17T22:11:45.927Z,101867.19
2022-10-17T22:14:16.214Z,101872.88
2022-10-17T22:16:46.528Z,101868.28
2022-10-17T22:19:17.056Z,101868.00
2022-10-17T22:21:46.931Z,101867.88
2022-10-17T22:24:19.167Z,101869.41
2022-10-17T22:26:47.289Z,101873.47
2022-10-17T22:29:15.364Z,101875.72
2022-10-17T22:31:43.184Z,101875.59
2022-10-17T22:34:14.652Z,101871.00
2022-10-17T22:36:43.534Z,101839.63
2022-10-17T22:39:12.384Z,101861.06
2022-10-17T22:41:40.138Z,101861.66
2022-10-17T22:44:08.471Z,101842.03
2022-10-17T22:46:46.500Z,101865.72
2022-10-17T22:49:15.703Z,101876.56
2022-10-17T22:51:46.213Z,101872.97
2022-10-17T22:54:13.969Z,101875.41
2022-10-17T22:56:41.708Z,101878.69
2022-10-17T22:59:09.507Z,101887.09
2022-10-17T23:01:37.256Z,101883.34
2022-10-17T23:04:05.123Z,101888.59
2022-10-17T23:06:34.273Z,101887.97
2022-10-17T23:09:02.029Z,101878.56
2022-10-17T23:11:29.932Z,101891.16
2022-10-17T23:13:57.787Z,101892.78
2022-10-17T23:16:25.587Z,101883.09
2022-10-17T23:18:55.327Z,101886.25
2022-10-17T23:21:23.196Z,101883.88
2022-10-17T23:23:52.500Z,101892.25
2022-10-17T23:26:21.651Z,101892.00
2022-10-17T23:28:55.941Z,101898.59
2022-10-17T23:31:24.032Z,101895.16
2022-10-17T23:33:51.778Z,101909.50
2022-10-17T23:36:21.801Z,101901.00
2022-10-17T23:38:51.796Z,101879.81
2022-10-17T23:41:23.157Z,101892.47
2022-10-17T23:43:51.251Z,101887.88
2022-10-17T23:46:26.448Z,101892.94
2022-10-17T23:48:54.306Z,101898.03
2022-10-17T23:51:22.171Z,101895.38
2022-10-17T23:53:50.062Z,101894.72
2022-10-17T23:56:17.891Z,101892.94
2022-10-17T23:58:49.590Z,101886.06
